createdAt,value
2019-03-04T00:01:55.085Z,67.62
2019-03-04T00:04:25.781Z,67.63
2019-03-04T00:06:56.049Z,68.02
2019-03-04T00:09:26.280Z,67.82
2019-03-04T00:11:57.774Z,67.78
2019-03-04T00:14:27.864Z,67.56
2019-03-04T00:17:00.108Z,67.86
2019-03-04T00:19:30.302Z,67.53
2019-03-04T00:22:00.482Z,67.67
2019-03-04T00:24:30.566Z,67.41
2019-03-04T00:27:00.754Z,67.34
2019-03-04T00:29:34.318Z,67.18
2019-03-04T00:32:06.004Z,66.90
2019-03-04T00:34:36.116Z,66.71
2019-03-04T00:37:06.565Z,66.78
2019-03-04T00:39:36.788Z,66.41
2019-03-04T00:42:06.934Z,66.33
2019-03-04T00:44:37.560Z,66.12
2019-03-04T00:47:07.708Z,66.34
2019-03-04T00:49:40.852Z,65.91
2019-03-04T00:52:10.996Z,65.66
2019-03-04T00:54:41.080Z,65.80
2019-03-04T00:57:11.204Z,65.57
2019-03-04T00:59:42.324Z,65.49
2019-03-04T01:02:12.723Z,65.44
2019-03-04T01:04:42.838Z,65.40
2019-03-04T01:07:13.386Z,65.17
2019-03-04T01:09:43.800Z,65.24
2019-03-04T01:12:14.332Z,65.36
2019-03-04T01:14:44.417Z,65.06
2019-03-04T01:17:14.536Z,65.08
2019-03-04T01:19:44.672Z,65.07
2019-03-04T01:22:20.555Z,65.01
2019-03-04T01:24:52.289Z,64.94
2019-03-04T01:27:22.424Z,65.21
2019-03-04T01:29:52.544Z,65.47
2019-03-04T01:32:22.680Z,65.15
2019-03-04T01:34:52.808Z,65.29
2019-03-04T01:37:24.554Z,64.96
2019-03-04T01:39:56.232Z,64.97
2019-03-04T01:42:26.314Z,64.80
2019-03-04T01:44:56.764Z,64.77
2019-03-04T01:47:27.444Z,64.88
2019-03-04T01:49:57.576Z,64.95
2019-03-04T01:52:27.728Z,64.59
2019-03-04T01:54:57.952Z,64.66
2019-03-04T01:57:28.479Z,64.62
2019-03-04T01:59:58.605Z,64.54
2019-03-04T02:02:29.103Z,64.74
2019-03-04T02:05:02.010Z,64.40
2019-03-04T02:07:34.707Z,64.70
2019-03-04T02:10:05.000Z,64.41
2019-03-04T02:12:35.100Z,64.41
2019-03-04T02:15:06.620Z,64.14
2019-03-04T02:17:41.137Z,64.04
2019-03-04T02:20:12.122Z,64.08
2019-03-04T02:22:43.560Z,64.10
2019-03-04T02:25:17.249Z,64.02
2019-03-04T02:27:50.113Z,64.04
2019-03-04T02:30:26.120Z,63.89
2019-03-04T02:32:56.230Z,63.64
2019-03-04T02:35:27.471Z,63.59
2019-03-04T02:37:57.612Z,63.85
2019-03-04T02:40:27.727Z,63.52
2019-03-04T02:42:57.843Z,63.40
2019-03-04T02:45:30.231Z,63.18
2019-03-04T02:48:00.336Z,63.35
2019-03-04T02:50:30.883Z,63.63
2019-03-04T02:53:03.485Z,63.26
2019-03-04T02:55:33.599Z,63.29
2019-03-04T02:58:03.754Z,63.20
2019-03-04T03:00:34.884Z,62.97
2019-03-04T03:05:54.900Z,63.05
2019-03-04T03:08:27.155Z,62.76
2019-03-04T03:10:57.423Z,62.57
2019-03-04T03:13:27.555Z,62.56
2019-03-04T03:16:03.373Z,62.37
2019-03-04T03:18:33.536Z,62.59
2019-03-04T03:21:03.669Z,62.38
2019-03-04T03:23:42.485Z,62.41
2019-03-04T03:26:13.861Z,62.51
2019-03-04T03:28:43.993Z,62.75
2019-03-04T03:31:14.124Z,62.92
2019-03-04T03:33:44.223Z,62.56
2019-03-04T03:36:14.558Z,62.44
2019-03-04T03:38:47.235Z,62.39
2019-03-04T03:41:20.602Z,62.16
2019-03-04T03:43:53.628Z,62.14
2019-03-04T03:46:23.757Z,62.18
2019-03-04T03:48:54.075Z,62.05
2019-03-04T03:51:34.601Z,62.69
2019-03-04T03:54:04.717Z,62.32
2019-03-04T03:56:34.863Z,62.27
2019-03-04T03:59:09.108Z,62.18
2019-03-04T04:01:40.674Z,62.20
2019-03-04T04:04:10.961Z,62.17
2019-03-04T04:06:41.155Z,62.31
2019-03-04T04:09:11.419Z,62.28
2019-03-04T04:11:44.445Z,62.35
2019-03-04T04:14:14.924Z,62.85
2019-03-04T04:16:45.202Z,62.64
2019-03-04T04:19:19.036Z,62.84
2019-03-04T04:21:53.369Z,62.78
2019-03-04T04:24:25.199Z,62.96
2019-03-04T04:27:09.784Z,63.23
2019-03-04T04:29:39.908Z,63.10
2019-03-04T04:32:10.388Z,62.82
2019-03-04T04:34:40.575Z,62.77
2019-03-04T04:37:13.205Z,62.58
2019-03-04T04:39:43.366Z,62.41
2019-03-04T04:42:18.183Z,62.33
2019-03-04T04:44:50.790Z,62.21
2019-03-04T04:47:22.574Z,62.32
2019-03-04T04:49:54.318Z,62.22
2019-03-04T04:52:24.450Z,61.98
2019-03-04T04:54:54.592Z,61.92
2019-03-04T04:57:29.622Z,61.86
2019-03-04T05:00:02.642Z,62.30
2019-03-04T05:02:33.127Z,61.93
2019-03-04T05:05:04.786Z,62.02
2019-03-04T05:07:37.080Z,62.08
2019-03-04T05:10:10.294Z,62.44
2019-03-04T05:12:45.642Z,62.56
2019-03-04T05:15:17.458Z,62.62
2019-03-04T05:17:50.636Z,62.60
2019-03-04T05:20:21.484Z,62.72
2019-03-04T05:22:51.641Z,62.93
2019-03-04T05:25:24.722Z,62.70
2019-03-04T05:28:00.099Z,62.60
2019-03-04T05:30:30.625Z,62.58
2019-03-04T05:33:01.249Z,62.93
2019-03-04T05:35:31.410Z,62.88
2019-03-04T05:38:01.698Z,62.56
2019-03-04T05:40:31.814Z,62.66
2019-03-04T05:43:05.028Z,62.68
2019-03-04T05:45:40.526Z,62.60
2019-03-04T05:48:12.859Z,62.55
2019-03-04T05:50:43.015Z,62.32
2019-03-04T05:53:13.493Z,62.50
2019-03-04T05:55:43.724Z,62.10
2019-03-04T05:58:15.362Z,61.95
2019-03-04T06:00:46.098Z,62.13
2019-03-04T06:03:16.475Z,62.32
2019-03-04T06:05:46.751Z,61.83
2019-03-04T06:08:17.099Z,61.77
2019-03-04T06:10:47.283Z,61.67
2019-03-04T06:13:17.563Z,61.57
2019-03-04T06:15:47.708Z,61.31
2019-03-04T06:18:17.965Z,61.60
2019-03-04T06:20:48.133Z,61.75
2019-03-04T06:23:21.317Z,61.42
2019-03-04T06:25:51.484Z,61.04
2019-03-04T06:28:24.723Z,60.75
2019-03-04T06:30:55.029Z,60.83
2019-03-04T06:33:26.198Z,60.67
2019-03-04T06:35:58.033Z,59.83
2019-03-04T06:38:28.302Z,59.12
2019-03-04T06:40:58.467Z,58.15
2019-03-04T06:43:29.632Z,57.15
2019-03-04T06:46:01.319Z,57.41
2019-03-04T06:48:31.471Z,56.89
2019-03-04T06:51:03.483Z,56.19
2019-03-04T06:53:40.722Z,56.08
2019-03-04T06:56:32.025Z,55.78
2019-03-04T06:59:22.361Z,55.73
2019-03-04T07:01:55.893Z,55.95
2019-03-04T07:04:34.199Z,56.16
2019-03-04T07:07:05.478Z,55.96
2019-03-04T07:09:36.976Z,55.98
2019-03-04T07:12:07.365Z,56.35
2019-03-04T07:14:37.546Z,55.94
2019-03-04T07:17:07.923Z,56.45
2019-03-04T07:19:39.655Z,56.29
2019-03-04T07:22:11.481Z,55.90
2019-03-04T07:24:43.083Z,55.96
2019-03-04T07:27:13.704Z,55.63
2019-03-04T07:29:47.859Z,55.69
2019-03-04T07:32:17.978Z,55.35
2019-03-04T07:34:51.055Z,55.53
2019-03-04T07:37:21.753Z,55.00
2019-03-04T07:39:52.113Z,55.15
2019-03-04T07:42:22.332Z,54.52
2019-03-04T07:44:55.786Z,53.84
2019-03-04T07:47:26.093Z,53.51
2019-03-04T07:49:58.079Z,53.22
2019-03-04T07:52:30.947Z,53.13
2019-03-04T07:55:01.649Z,53.44
2019-03-04T07:57:34.818Z,53.62
2019-03-04T08:00:06.938Z,52.63
2019-03-04T08:02:38.389Z,51.53
2019-03-04T08:05:09.283Z,51.64
2019-03-04T08:07:42.042Z,52.43
2019-03-04T08:10:57.351Z,51.17
2019-03-04T08:13:40.372Z,51.20
2019-03-04T08:16:12.837Z,51.55
2019-03-04T08:18:44.476Z,55.39
2019-03-04T08:21:15.200Z,60.25
2019-03-04T08:23:45.318Z,65.54
2019-03-04T08:26:15.386Z,68.46
2019-03-04T08:28:45.591Z,70.66
2019-03-04T08:31:16.146Z,70.81
2019-03-04T08:33:47.067Z,71.39
2019-03-04T08:36:20.738Z,70.05
2019-03-04T08:38:52.114Z,68.68
2019-03-04T08:41:22.262Z,66.74
2019-03-04T08:43:53.988Z,66.82
2019-03-04T08:46:24.096Z,65.87
2019-03-04T08:48:55.936Z,64.54
2019-03-04T08:51:26.158Z,63.47
2019-03-04T08:53:57.965Z,62.96
2019-03-04T08:56:30.886Z,65.48
2019-03-04T08:59:03.702Z,62.81
2019-03-04T09:01:35.976Z,63.12
2019-03-04T09:04:06.133Z,63.12
2019-03-04T09:06:39.242Z,64.41
2019-03-04T09:09:11.661Z,62.37
2019-03-04T09:11:44.556Z,63.13
2019-03-04T09:14:14.700Z,62.76
2019-03-04T09:16:44.959Z,61.68
2019-03-04T09:19:16.467Z,62.08
2019-03-04T09:21:46.734Z,62.09
2019-03-04T09:24:17.962Z,61.77
2019-03-04T09:26:48.076Z,60.27
2019-03-04T09:29:20.361Z,61.03
2019-03-04T09:31:50.498Z,60.43
2019-03-04T09:34:22.109Z,60.63
2019-03-04T09:36:52.237Z,58.58
2019-03-04T09:39:22.329Z,58.21
2019-03-04T09:41:57.156Z,57.48
2019-03-04T09:44:27.424Z,56.86
2019-03-04T09:46:57.891Z,56.82
2019-03-04T09:49:28.487Z,55.82
2019-03-04T09:51:58.722Z,55.23
2019-03-04T09:54:30.913Z,55.60
2019-03-04T09:57:04.635Z,55.13
2019-03-04T09:59:34.791Z,55.47
2019-03-04T10:02:09.656Z,54.95
2019-03-04T10:05:04.490Z,54.24
2019-03-04T10:08:03.567Z,53.83
2019-03-04T10:11:01.613Z,53.99
2019-03-04T10:13:48.327Z,51.91
2019-03-04T10:16:43.451Z,51.38
2019-03-04T10:20:15.823Z,51.82
2019-03-04T10:23:02.824Z,51.52
2019-03-04T10:26:08.881Z,51.79
2019-03-04T10:29:16.067Z,51.01
2019-03-04T10:32:13.825Z,50.62
2019-03-04T10:35:20.435Z,50.52
2019-03-04T10:38:22.774Z,50.89
2019-03-04T10:41:04.489Z,51.60
2019-03-04T10:44:30.063Z,50.73
2019-03-04T10:47:01.413Z,50.07
2019-03-04T10:49:33.183Z,50.22
2019-03-04T10:52:09.123Z,49.66
2019-03-04T10:54:41.034Z,48.56
2019-03-04T10:57:13.539Z,47.92
2019-03-04T10:59:46.209Z,49.08
2019-03-04T11:02:16.475Z,47.87
2019-03-04T11:04:47.713Z,47.89
2019-03-04T11:07:19.059Z,46.60
2019-03-04T11:09:49.239Z,47.03
2019-03-04T11:12:21.284Z,46.07
2019-03-04T11:14:51.619Z,46.48
2019-03-04T11:17:21.849Z,45.34
2019-03-04T11:19:54.199Z,45.06
2019-03-04T11:22:25.920Z,45.40
2019-03-04T11:24:56.146Z,44.37
2019-03-04T11:27:32.406Z,44.17
2019-03-04T11:29:59.679Z,44.30
2019-03-04T11:32:29.821Z,43.61
2019-03-04T11:35:00.095Z,43.66
2019-03-04T11:37:30.439Z,43.67
2019-03-04T11:40:08.795Z,43.51
2019-03-04T11:42:40.900Z,43.56
2019-03-04T11:45:15.278Z,45.06
2019-03-04T11:47:45.747Z,43.63
2019-03-04T11:50:16.225Z,44.53
2019-03-04T11:52:47.313Z,46.74
2019-03-04T11:55:17.884Z,53.63
2019-03-04T11:57:48.350Z,59.82
2019-03-04T12:00:24.548Z,60.39
2019-03-04T12:02:54.787Z,60.42
2019-03-04T12:05:25.035Z,59.51
2019-03-04T12:07:56.486Z,60.92
2019-03-04T12:10:26.694Z,59.81
2019-03-04T12:12:56.893Z,59.54
2019-03-04T12:15:27.136Z,57.60
2019-03-04T12:17:57.316Z,56.78
2019-03-04T12:20:27.668Z,57.06
2019-03-04T12:22:59.262Z,56.58
2019-03-04T12:25:30.774Z,57.23
2019-03-04T12:28:01.048Z,55.87
2019-03-04T12:30:33.702Z,55.61
2019-03-04T12:33:05.730Z,55.44
2019-03-04T12:35:35.928Z,53.85
2019-03-04T12:38:09.343Z,53.08
2019-03-04T12:40:39.554Z,53.10
2019-03-04T12:43:09.873Z,52.27
2019-03-04T12:45:40.374Z,52.31
2019-03-04T12:48:10.667Z,53.31
2019-03-04T12:50:40.885Z,52.98
2019-03-04T12:53:11.584Z,53.38
2019-03-04T12:55:43.038Z,55.21
2019-03-04T12:58:14.659Z,54.64
2019-03-04T13:00:44.922Z,55.25
2019-03-04T13:03:20.396Z,62.24
2019-03-04T13:05:51.990Z,66.07
2019-03-04T13:08:25.107Z,70.88
2019-03-04T13:10:55.790Z,72.58
2019-03-04T13:13:28.243Z,73.31
2019-03-04T13:16:00.004Z,75.09
2019-03-04T13:18:30.606Z,76.47
2019-03-04T13:21:00.805Z,75.94
2019-03-04T13:23:31.044Z,76.17
2019-03-04T13:26:01.561Z,75.58
2019-03-04T13:28:31.841Z,74.01
2019-03-04T13:31:02.930Z,74.64
2019-03-04T13:33:33.092Z,74.24
2019-03-04T13:36:03.168Z,73.09
2019-03-04T13:38:36.292Z,73.91
2019-03-04T13:41:07.309Z,72.11
2019-03-04T13:43:37.415Z,73.39
2019-03-04T13:46:07.538Z,71.43
2019-03-04T13:48:42.295Z,71.74
2019-03-04T13:51:13.962Z,69.16
2019-03-04T13:53:45.094Z,70.04
2019-03-04T13:56:15.192Z,67.83
2019-03-04T13:58:45.355Z,67.19
2019-03-04T14:01:16.029Z,68.12
2019-03-04T14:03:47.097Z,67.31
2019-03-04T14:06:18.335Z,68.04
2019-03-04T14:08:49.860Z,68.68
2019-03-04T14:11:22.529Z,66.76
2019-03-04T14:13:52.843Z,66.86
2019-03-04T14:16:23.963Z,67.90
2019-03-04T14:18:54.049Z,66.73
2019-03-04T14:21:24.810Z,65.64
2019-03-04T14:23:55.919Z,65.68
2019-03-04T14:26:26.091Z,63.75
2019-03-04T14:28:56.600Z,63.69
2019-03-04T14:31:29.408Z,63.33
2019-03-04T14:34:03.395Z,63.48
2019-03-04T14:36:39.226Z,62.85
2019-03-04T14:39:16.116Z,62.59
2019-03-04T14:41:46.238Z,62.33
2019-03-04T14:44:16.357Z,62.78
2019-03-04T14:46:46.419Z,62.05
2019-03-04T14:49:16.573Z,61.63
2019-03-04T14:51:47.050Z,60.80
2019-03-04T14:54:17.195Z,61.51
2019-03-04T14:56:47.514Z,60.82
2019-03-04T14:59:20.700Z,60.75
2019-03-04T15:01:53.979Z,60.29
2019-03-04T15:04:27.113Z,60.38
2019-03-04T15:06:58.137Z,59.85
2019-03-04T15:09:28.261Z,58.44
2019-03-04T15:11:58.582Z,59.32
2019-03-04T15:14:29.784Z,57.79
2019-03-04T15:17:03.551Z,58.55
2019-03-04T15:19:33.960Z,58.08
2019-03-04T15:22:04.080Z,57.49
2019-03-04T15:24:37.191Z,57.18
2019-03-04T15:27:07.297Z,57.31
2019-03-04T15:29:37.841Z,57.84
2019-03-04T15:32:08.418Z,57.74
2019-03-04T15:34:38.774Z,58.64
2019-03-04T15:37:09.147Z,58.76
2019-03-04T15:39:41.183Z,58.51
2019-03-04T15:42:11.665Z,58.40
2019-03-04T15:44:45.928Z,58.32
2019-03-04T15:47:18.647Z,58.27
2019-03-04T15:49:49.378Z,58.63
2019-03-04T15:52:19.875Z,57.74
2019-03-04T15:54:52.442Z,57.85
2019-03-04T15:57:22.756Z,58.39
2019-03-04T15:59:57.747Z,57.83
2019-03-04T16:02:32.856Z,57.96
2019-03-04T16:05:04.748Z,56.19
2019-03-04T16:07:38.260Z,56.51
2019-03-04T16:10:15.467Z,57.08
2019-03-04T16:12:47.342Z,56.24
2019-03-04T16:15:29.756Z,55.93
2019-03-04T16:18:00.638Z,56.09
2019-03-04T16:20:31.732Z,56.30
2019-03-04T16:23:05.076Z,56.63
2019-03-04T16:25:36.962Z,58.24
2019-03-04T16:28:12.976Z,58.03
2019-03-04T16:30:44.156Z,57.85
2019-03-04T16:33:14.319Z,57.85
2019-03-04T16:35:45.581Z,58.00
2019-03-04T16:38:16.671Z,57.54
2019-03-04T16:40:48.454Z,57.76
2019-03-04T16:43:18.627Z,57.17
2019-03-04T16:45:50.382Z,56.75
2019-03-04T16:48:20.657Z,56.41
2019-03-04T16:50:51.851Z,55.97
2019-03-04T16:53:44.578Z,56.46
2019-03-04T16:56:14.788Z,56.01
2019-03-04T16:58:44.906Z,56.56
2019-03-04T17:01:15.336Z,56.30
2019-03-04T17:03:45.714Z,56.13
2019-03-04T17:06:17.352Z,55.87
2019-03-04T17:08:52.099Z,55.72
2019-03-04T17:11:24.912Z,55.99
2019-03-04T17:13:55.854Z,56.02
2019-03-04T17:16:25.979Z,56.33
2019-03-04T17:18:56.313Z,56.42
2019-03-04T17:21:28.085Z,56.58
2019-03-04T17:23:59.365Z,56.88
2019-03-04T17:26:35.264Z,56.71
2019-03-04T17:29:05.628Z,56.86
2019-03-04T17:31:37.916Z,57.19
2019-03-04T17:34:07.772Z,56.91
2019-03-04T17:36:41.241Z,57.29
2019-03-04T17:39:14.096Z,57.47
2019-03-04T17:41:44.996Z,57.76
2019-03-04T17:44:22.485Z,57.70
2019-03-04T17:46:53.087Z,57.84
2019-03-04T17:49:24.136Z,57.68
2019-03-04T17:51:55.437Z,57.73
2019-03-04T17:54:25.720Z,57.80
2019-03-04T17:56:56.165Z,57.68
2019-03-04T17:59:26.374Z,57.19
2019-03-04T18:01:57.040Z,56.94
2019-03-04T18:04:27.258Z,56.81
2019-03-04T18:06:57.539Z,56.42
2019-03-04T18:09:27.670Z,56.02
2019-03-04T18:12:03.110Z,55.58
2019-03-04T18:14:34.375Z,55.72
2019-03-04T18:17:04.618Z,55.05
2019-03-04T18:19:35.226Z,54.59
2019-03-04T18:22:05.779Z,54.56
2019-03-04T18:24:36.069Z,54.48
2019-03-04T18:27:15.855Z,54.72
2019-03-04T18:30:33.173Z,54.84
2019-03-04T18:33:31.111Z,54.82
2019-03-04T18:36:42.114Z,55.31
2019-03-04T18:39:59.591Z,55.22
2019-03-04T18:42:54.440Z,55.57
2019-03-04T18:46:23.901Z,55.32
2019-03-04T18:48:58.331Z,55.51
2019-03-04T18:51:33.288Z,55.93
2019-03-04T18:54:22.661Z,56.02
2019-03-04T18:56:52.790Z,56.60
2019-03-04T18:59:23.104Z,56.60
2019-03-04T19:01:53.734Z,56.57
2019-03-04T19:04:25.344Z,56.64
2019-03-04T19:06:58.574Z,56.63
2019-03-04T19:09:28.797Z,56.69
2019-03-04T19:11:59.085Z,56.81
2019-03-04T19:14:29.772Z,57.15
2019-03-04T19:16:59.999Z,57.66
2019-03-04T19:19:31.706Z,56.95
2019-03-04T19:22:01.916Z,56.73
2019-03-04T19:24:32.083Z,56.93
2019-03-04T19:27:06.113Z,56.51
2019-03-04T19:29:36.306Z,56.95
2019-03-04T19:32:06.523Z,56.85
2019-03-04T19:34:36.706Z,56.35
2019-03-04T19:37:07.374Z,56.23
2019-03-04T19:39:41.550Z,56.23
2019-03-04T19:42:11.711Z,56.71
2019-03-04T19:44:41.780Z,56.82
2019-03-04T19:47:16.155Z,57.05
2019-03-04T19:49:46.582Z,57.23
2019-03-04T19:52:17.060Z,57.70
2019-03-04T19:54:51.108Z,57.59
2019-03-04T19:57:26.411Z,57.54
2019-03-04T19:59:56.588Z,57.86
2019-03-04T20:02:27.208Z,57.94
2019-03-04T20:04:57.532Z,57.99
2019-03-04T20:07:27.741Z,58.17
2019-03-04T20:09:58.303Z,58.13
2019-03-04T20:12:30.637Z,58.08
2019-03-04T20:15:02.167Z,57.93
2019-03-04T20:17:32.965Z,57.93
2019-03-04T20:20:04.097Z,58.00
2019-03-04T20:22:34.456Z,58.46
2019-03-04T20:25:12.494Z,58.59
2019-03-04T20:27:44.265Z,58.51
2019-03-04T20:30:17.510Z,59.06
2019-03-04T20:32:50.531Z,59.08
2019-03-04T20:35:24.239Z,58.95
2019-03-04T20:37:57.224Z,59.26
2019-03-04T20:40:34.632Z,59.33
2019-03-04T20:43:19.886Z,59.54
2019-03-04T20:46:12.709Z,59.07
2019-03-04T20:48:25.912Z,59.03
2019-03-04T20:50:56.427Z,58.52
2019-03-04T20:53:27.005Z,58.42
2019-03-04T20:56:00.633Z,58.11
2019-03-04T20:58:33.364Z,58.12
2019-03-04T21:01:03.774Z,58.12
2019-03-04T21:03:38.633Z,57.73
2019-03-04T21:06:10.140Z,57.73
2019-03-04T21:08:40.452Z,57.79
2019-03-04T21:11:10.877Z,57.42
2019-03-04T21:13:42.776Z,57.69
2019-03-04T21:16:13.040Z,57.54
2019-03-04T21:18:47.651Z,57.51
2019-03-04T21:21:17.907Z,57.58
2019-03-04T21:23:48.577Z,57.77
2019-03-04T21:26:25.689Z,57.42
2019-03-04T21:29:32.646Z,57.47
2019-03-04T21:32:22.857Z,57.76
2019-03-04T21:35:47.334Z,58.27
2019-03-04T21:38:20.729Z,58.27
2019-03-04T21:41:21.696Z,58.44
2019-03-04T21:44:01.506Z,58.67
2019-03-04T21:47:28.188Z,59.06
2019-03-04T21:49:58.843Z,59.07
2019-03-04T21:52:56.778Z,59.54
2019-03-04T21:55:32.641Z,59.43
2019-03-04T21:58:03.294Z,59.26
2019-03-04T22:00:40.230Z,59.48
2019-03-04T22:03:21.781Z,59.17
2019-03-04T22:05:52.761Z,59.52
2019-03-04T22:08:23.288Z,58.87
2019-03-04T22:10:54.638Z,58.67
2019-03-04T22:13:25.366Z,58.89
2019-03-04T22:15:55.564Z,59.43
2019-03-04T22:18:28.163Z,58.91
2019-03-04T22:20:58.660Z,58.68
2019-03-04T22:23:29.272Z,58.79
2019-03-04T22:26:02.459Z,58.74
2019-03-04T22:28:36.102Z,58.35
2019-03-04T22:31:08.333Z,58.40
2019-03-04T22:33:38.868Z,58.15
2019-03-04T22:36:12.190Z,58.57
2019-03-04T22:38:42.861Z,58.05
2019-03-04T22:41:13.891Z,57.32
2019-03-04T22:43:44.943Z,57.28
2019-03-04T22:46:15.308Z,57.34
2019-03-04T22:48:46.216Z,57.13
2019-03-04T22:51:16.576Z,57.31
2019-03-04T22:53:46.802Z,57.23
2019-03-04T22:56:17.049Z,56.76
2019-03-04T22:58:47.352Z,56.91
2019-03-04T23:01:59.492Z,56.83
2019-03-04T23:04:59.368Z,56.88
2019-03-04T23:07:53.632Z,57.32
2019-03-04T23:10:34.643Z,58.04
2019-03-04T23:13:41.165Z,58.11
2019-03-04T23:16:13.136Z,58.41
2019-03-04T23:18:43.553Z,58.99
2019-03-04T23:21:14.885Z,59.06
2019-03-04T23:23:45.423Z,58.90
2019-03-04T23:26:15.662Z,59.17
2019-03-04T23:28:50.633Z,59.13
2019-03-04T23:31:22.313Z,58.91
2019-03-04T23:33:52.529Z,59.03
2019-03-04T23:36:22.687Z,58.59
2019-03-04T23:38:52.802Z,59.02
2019-03-04T23:41:23.049Z,58.69
2019-03-04T23:43:53.183Z,58.68
2019-03-04T23:46:23.817Z,59.70
2019-03-04T23:48:53.939Z,58.97
2019-03-04T23:51:24.321Z,58.97
2019-03-04T23:53:54.500Z,58.88
2019-03-04T23:56:25.971Z,58.98
2019-03-04T23:58:56.304Z,59.08
